Terminal Aerodrome Forecast
Issued by NWS

Home | Current Version | Previous Version | Text Only | Print | Product List | Glossary On
Versions: 1 2 3 4 5 6 7 8 9 10 11 12 13 14 15 16 17 18 19 20 21 22 23 24 25 26 27 28 29 30 31 32 33
734
FTUS43 KDLH 192334
TAFBRD
TAF
KBRD 192334Z 2000/2024 17008KT 4SM BR SKC
     FM200400 15005KT 1/4SM -FZDZ FG VV002
     FM201500 13005KT 3/4SM -RASN BR OVC004
     FM201900 14006KT 1 1/2SM -RA BR OVC007=

USA.gov is the U.S. government's official web portal to all federal, state and local government web resources and services.